Latest Weather Observations for Pallamana

IDS60901

Issued at 1:25 pm CDT Thursday 23 October 2014 (issued every 10 minutes, with the page automatically refreshed every 10 minutes)

About weather observations | Map of Adelaide area stations | Latest observations for Adelaide area | Other Formats
Station Details ID: 024584 Name: PALLAMANA AERODROME Lat: -35.06 Lon: 139.23 Height: 45.0 m
Data from the previous 72 hours. | See also: Recent months at Pallamana
Date/Time
CDT
Tmp

°C
App
Tmp
°C
Dew
Point
°C
Rel
Hum
%
Delta-T

°C
Wind Press
QNH
hPa
Press
MSL
hPa
Rain
since
9 am
mm
Dir
 
Spd
km/h
Gust
km/h
Spd
kts
Gust
kts
23/01:00pm 22.1 19.8 10.4 47 6.4 SSW 13 20 7 11 1016.1 1016.0 0.0
23/12:30pm 22.1 19.5 10.6 48 6.3 SSW 15 22 8 12 1016.7 1016.6 0.0
23/12:00pm 20.5 18.3 10.8 53 5.3 SSW 13 19 7 10 1017.2 1017.1 0.0
23/11:30am 19.5 16.2 10.9 57 4.7 WSW 19 26 10 14 1017.6 1017.5 0.0
23/11:00am 18.6 14.7 10.8 60 4.2 SW 22 28 12 15 1017.9 1017.8 0.0
23/10:30am 17.6 14.1 10.9 65 3.6 SW 20 26 11 14 1018.2 1018.1 0.0
23/10:00am 16.3 12.8 10.9 70 2.9 SW 20 28 11 15 1018.3 1018.3 0.0
23/09:30am 15.6 12.4 11.1 74 2.4 SSW 19 24 10 13 1018.7 1018.7 0.0
23/09:00am 15.0 11.6 11.3 78 2.0 SW 20 26 11 14 1018.6 1018.6 0.0
23/08:30am 14.7 11.9 11.3 80 1.8 SSW 17 24 9 13 1019.0 1019.0 0.0
23/08:00am 14.5 11.1 11.3 81 1.7 S 20 28 11 15 1019.0 1019.0 0.0
23/07:30am 14.4 11.1 11.6 83 1.5 S 20 28 11 15 1018.8 1018.8 0.0
23/07:00am 14.5 10.9 11.9 84 1.4 SSW 22 32 12 17 1018.7 1018.7 0.0
23/06:30am 14.6 11.3 11.6 82 1.6 S 20 28 11 15 1018.5 1018.5 0.0
23/06:00am 14.6 10.6 11.8 83 1.5 SSW 24 32 13 17 1018.5 1018.5 0.0
23/05:30am 14.8 11.8 11.8 82 1.6 SSW 19 28 10 15 1018.1 1018.0 0.0
23/05:00am 14.8 11.6 12.0 83 1.5 SSW 20 30 11 16 1018.1 1018.0 0.0
23/04:30am 14.9 10.9 11.7 81 1.7 SSW 24 33 13 18 1018.2 1018.1 0.0
23/04:00am 14.8 10.0 11.6 81 1.7 SSW 28 39 15 21 1017.9 1017.8 0.0
23/03:30am 14.8 10.4 11.8 82 1.6 SSW 26 33 14 18 1018.2 1018.1 0.0
23/03:00am 14.9 10.2 11.9 82 1.6 SSW 28 35 15 19 1018.5 1018.5 0.0
23/02:30am 15.0 11.4 12.0 82 1.6 SSW 22 30 12 16 1018.6 1018.6 0.0
23/02:00am 14.9 10.6 12.1 83 1.5 SSW 26 37 14 20 1018.8 1018.8 0.0
23/01:30am 14.8 10.9 12.2 84 1.4 SSW 24 32 13 17 1018.8 1018.8 0.0
23/01:00am 14.9 11.0 12.1 83 1.5 SW 24 37 13 20 1019.2 1019.2 0.0
23/12:30am 15.0 12.0 12.0 82 1.6 SSW 19 26 10 14 1019.7 1019.7 0.0
23/12:00am 15.0 11.0 11.9 82 1.7 SSW 24 35 13 19 1019.8 1019.8 0.0
 
Date/Time
CDT
Tmp

°C
App
Tmp
°C
Dew
Point
°C
Rel
Hum
%
Delta-T

°C
Wind Press
QNH
hPa
Press
MSL
hPa
Rain
since
9 am
mm
Dir
 
Spd
km/h
Gust
km/h
Spd
kts
Gust
kts
22/11:30pm 15.0 10.7 12.0 82 1.6 SSW 26 37 14 20 1020.0 1020.0 0.0
22/11:00pm 15.2 11.4 12.3 83 1.6 SSW 24 32 13 17 1020.3 1020.3 0.0
22/10:30pm 15.3 10.7 12.4 83 1.6 SSW 28 39 15 21 1020.3 1020.3 0.0
22/10:00pm 15.3 10.7 12.4 83 1.6 SW 28 39 15 21 1020.2 1020.2 0.0
22/09:30pm 15.6 11.4 12.3 81 1.8 SSW 26 39 14 21 1020.2 1020.2 0.0
22/09:00pm 15.6 10.2 12.3 81 1.8 SSW 32 44 17 24 1020.0 1020.0 0.0
22/08:44pm 15.6 11.0 12.3 81 1.8 SSW 28 46 15 25 1019.6 1019.6 0.0
22/08:30pm 15.6 11.4 12.5 82 1.7 SSW 26 35 14 19 1019.5 1019.5 0.0
22/08:00pm 15.5 10.5 12.2 81 1.8 SSW 30 39 16 21 1018.9 1018.9 0.0
22/07:30pm 15.8 10.4 12.1 78 2.0 SW 32 39 17 21 1018.6 1018.6 0.0
22/07:00pm 16.1 10.7 12.1 77 2.2 SSW 32 43 17 23 1018.4 1018.4 0.0
22/06:30pm 17.0 11.6 12.1 73 2.7 SSW 32 43 17 23 1018.0 1017.9 0.0
22/06:00pm 18.3 12.3 12.0 66 3.5 SSW 35 44 19 24 1017.8 1017.7 0.0
22/05:30pm 19.7 14.0 11.7 60 4.4 SSW 33 44 18 24 1017.7 1017.6 0.0
22/05:00pm 20.5 14.0 11.7 57 4.9 SSW 37 46 20 25 1017.4 1017.3 0.0
22/04:49pm 21.1 15.6 11.8 55 5.2 SSW 32 50 17 27 1017.5 1017.4 0.0
22/04:30pm 21.5 15.3 11.4 52 5.6 SSW 35 46 19 25 1017.4 1017.3 0.0
22/04:00pm 22.2 16.0 11.4 50 6.0 SSW 35 46 19 25 1017.4 1017.3 0.0
22/03:30pm 22.8 16.1 11.1 47 6.5 SSW 37 48 20 26 1017.3 1017.2 0.0
22/03:00pm 23.1 16.1 11.3 47 6.6 SSW 39 48 21 26 1017.4 1017.3 0.0
22/02:30pm 23.7 17.1 11.4 46 6.9 SSW 37 52 20 28 1017.4 1017.3 0.0
22/02:00pm 24.6 18.3 11.0 42 7.6 SSW 35 46 19 25 1017.4 1017.3 0.0
22/01:30pm 25.3 19.4 11.3 41 7.9 SSW 33 48 18 26 1017.4 1017.3 0.0
22/01:00pm 26.5 21.0 10.7 37 8.9 SSW 30 41 16 22 1017.2 1017.1 0.0
22/12:30pm 28.2 23.4 10.3 32 10.1 SSW 26 32 14 17 1017.0 1016.9 0.0
22/12:00pm 28.0 23.8 9.7 31 10.2 SW 22 32 12 17 1017.0 1016.9 0.0
22/11:30am 27.5 23.9 9.9 33 9.8 SW 19 26 10 14 1017.2 1017.1 0.0
22/11:00am 25.8 22.3 10.1 37 8.7 SSW 19 26 10 14 1017.4 1017.3 0.0
22/10:30am 25.9 21.2 9.3 35 9.1 SW 24 32 13 17 1017.6 1017.5 0.0
22/10:00am 26.0 21.3 9.2 34 9.2 SW 24 32 13 17 1017.6 1017.5 0.0
22/09:30am 25.0 20.7 9.4 37 8.5 SSW 22 30 12 16 1017.5 1017.4 0.0
22/09:00am 23.9 19.7 8.3 37 8.3 SSW 20 28 11 15 1017.4 1017.3 0.0
22/08:30am 22.5 19.8 5.8 34 8.4 SSE 9 15 5 8 1017.1 1017.0 0.0
22/08:00am 22.1 19.1 4.3 31 8.7 WSW 9 20 5 11 1017.0 1016.9 0.0
22/07:30am 18.6 16.4 6.3 44 6.1 NW 7 9 4 5 1016.3 1016.2 0.0
22/07:00am 15.8 13.9 6.6 54 4.5 W 6 9 3 5 1016.2 1016.1 0.0
22/06:30am 13.3 11.2 5.7 60 3.6 SW 6 9 3 5 1016.0 1015.9 0.0
22/06:00am 12.7 11.7 5.7 62 3.3 CALM 0 0 0 0 1015.9 1015.8 0.0
22/05:30am 15.9 14.8 7.0 55 4.4 WNW 2 7 1 4 1015.7 1015.6 0.0
22/05:00am 17.9 15.8 6.6 47 5.6 W 7 11 4 6 1015.5 1015.4 0.0
22/04:30am 19.7 15.4 7.1 44 6.4 W 19 26 10 14 1015.6 1015.5 0.0
22/04:00am 20.4 16.1 7.8 44 6.5 W 20 30 11 16 1015.6 1015.5 0.0
22/03:30am 21.4 16.9 6.9 39 7.4 WSW 20 33 11 18 1015.7 1015.6 0.0
22/03:00am 22.9 17.4 0.3 22 10.3 WSW 19 24 10 13 1015.7 1015.6 0.0
22/02:30am 23.6 19.2 0.2 21 10.7 NE 13 15 7 8 1015.6 1015.5 0.0
22/02:00am 26.6 20.9 -0.8 16 12.6 NE 19 26 10 14 1015.9 1015.8 0.0
22/01:30am 26.0 22.0 0.7 19 11.9 ENE 11 15 6 8 1016.3 1016.2 0.0
22/01:00am 24.7 21.3 2.1 23 10.8 SSE 9 15 5 8 1016.9 1016.8 0.0
22/12:30am 23.4 20.4 4.0 28 9.5 N 9 26 5 14 1017.3 1017.2 0.0
22/12:00am 23.3 20.9 4.5 29 9.3 NNW 6 11 3 6 1017.7 1017.6 0.0
 
Date/Time
CDT
Tmp

°C
App
Tmp
°C
Dew
Point
°C
Rel
Hum
%
Delta-T

°C
Wind Press
QNH
hPa
Press
MSL
hPa
Rain
since
9 am
mm
Dir
 
Spd
km/h
Gust
km/h
Spd
kts
Gust
kts
21/11:30pm 26.7 22.4 1.0 18 12.2 WNW 13 17 7 9 1018.3 1018.3 0.0
21/11:25pm 26.6 22.3 0.8 18 12.2 WNW 13 17 7 9 1018.2 1018.1 0.0
21/11:00pm 21.5 19.9 4.5 33 8.3 WNW 2 9 1 5 1018.1 1018.0 0.0
21/10:30pm 23.3 20.8 4.8 30 9.2 WNW 7 9 4 5 1018.0 1017.9 0.0
21/10:00pm 22.3 20.9 3.4 29 9.1 CALM 0 0 0 0 1017.8 1017.7 0.0
21/09:30pm 23.4 22.3 5.3 31 9.1 CALM 0 0 0 0 1017.5 1017.4 0.0
21/09:00pm 25.2 22.0 3.1 24 10.8 SW 9 11 5 6 1017.5 1017.4 0.0
21/08:30pm 26.7 24.1 3.2 22 11.6 S 6 9 3 5 1017.2 1017.1 0.0
21/08:00pm 28.5 24.8 2.3 18 12.9 SSE 11 15 6 8 1016.9 1016.8 0.0
21/07:30pm 29.7 25.9 1.5 16 13.8 S 11 15 6 8 1016.9 1016.8 0.0
21/07:00pm 31.7 26.5 0.1 13 15.3 SSW 17 20 9 11 1016.8 1016.7 0.0
21/06:30pm 32.9 27.1 -0.3 12 16.1 SSW 20 26 11 14 1016.7 1016.6 0.0
21/06:00pm 33.1 27.2 -0.7 11 16.3 SW 20 28 11 15 1016.7 1016.6 0.0
21/05:30pm 34.1 27.1 -3.3 9 17.4 S 24 32 13 17 1016.4 1016.3 0.0
21/05:00pm 35.4 32.1 -1.3 9 17.8 E 6 13 3 7 1016.4 1016.3 0.0
21/04:30pm 36.8 32.0 -2.6 8 18.9 NE 13 20 7 11 1016.6 1016.5 0.0
21/04:00pm 36.0 31.1 -0.5 10 18.0 NNE 15 24 8 13 1016.8 1016.7 0.0
21/03:30pm 36.7 30.4 -0.9 9 18.5 NE 22 32 12 17 1017.1 1017.0 0.0
21/03:00pm 36.7 31.0 -0.9 9 18.5 N 19 28 10 15 1017.6 1017.5 0.0
21/02:30pm 36.5 30.9 0.0 10 18.2 N 19 32 10 17 1018.2 1018.1 0.0
21/02:00pm 36.0 29.0 -0.5 10 18.0 N 26 37 14 20 1018.6 1018.6 0.0
21/01:30pm 36.1 28.8 0.2 10 17.9 N 28 37 15 20 1019.1 1019.1 0.0
21/01:00pm 34.5 26.9 0.3 11 16.9 N 30 39 16 21 1019.5 1019.5 0.0
21/12:30pm 34.7 27.0 0.0 11 17.1 NNE 30 41 16 22 1019.9 1019.9 0.0
21/12:00pm 33.6 25.9 -0.3 11 16.5 NNE 30 39 16 21 1020.4 1020.4 0.0
21/11:30am 32.0 25.3 1.6 14 15.1 NNE 26 33 14 18 1020.8 1020.8 0.0
21/11:00am 29.9 22.1 1.5 16 13.9 N 32 39 17 21 1021.2 1021.2 0.0
21/10:30am 27.2 20.8 1.2 18 12.4 N 24 33 13 18 1021.6 1021.6 0.0
21/10:00am 24.3 18.3 0.8 21 10.9 NNE 22 30 12 16 1021.9 1021.9 0.0
21/09:30am 22.7 17.1 0.9 23 10.0 NNE 20 28 11 15 1022.2 1022.2 0.0
21/09:00am 19.7 14.3 1.3 29 8.3 N 19 24 10 13 1022.4 1022.4 0.0
21/08:30am 18.0 13.6 2.7 36 7.0 NNE 15 17 8 9 1022.4 1022.4 0.0
21/08:00am 15.3 12.4 4.8 49 4.9 NNE 9 13 5 7 1022.4 1022.4 0.0
21/07:30am 12.1 9.9 6.1 67 2.8 N 7 9 4 5 1022.2 1022.2 0.0
21/07:00am 10.9 8.5 5.4 69 2.5 N 7 9 4 5 1022.0 1022.0 0.0
21/06:30am 9.6 6.7 4.7 71 2.2 N 9 11 5 6 1021.8 1021.8 0.0
21/06:00am 10.6 7.3 4.3 65 2.8 N 11 13 6 7 1021.5 1021.5 0.0
21/05:30am 11.5 8.3 3.3 57 3.6 N 9 11 5 6 1021.2 1021.2 0.0
21/05:00am 11.8 8.0 3.7 57 3.6 N 13 13 7 7 1021.2 1021.2 0.0
21/04:30am 12.3 8.5 4.1 57 3.7 NE 13 15 7 8 1021.0 1021.0 0.0
21/04:00am 12.2 8.5 4.5 59 3.5 N 13 15 7 8 1021.3 1021.3 0.0
21/03:30am 10.6 8.0 6.3 75 2.0 NNW 9 11 5 6 1021.4 1021.4 0.0
21/03:00am 9.6 7.7 6.8 83 1.3 NNW 6 7 3 4 1021.5 1021.5 0.0
21/02:30am 8.8 7.9 6.2 84 1.2 CALM 0 0 0 0 1021.8 1021.8 0.0
21/02:00am 9.7 9.1 7.2 84 1.2 CALM 0 0 0 0 1021.8 1021.8 0.0
21/01:30am 9.1 7.1 6.3 83 1.3 NNW 6 6 3 3 1022.0 1022.0 0.0
21/01:00am 10.4 8.3 6.8 78 1.7 NNW 7 9 4 5 1022.3 1022.3 0.0
21/12:30am 11.1 10.5 7.6 79 1.7 CALM 0 6 0 3 1022.7 1022.7 0.0
21/12:00am 12.1 11.8 8.5 78 1.8 CALM 0 6 0 3 1023.1 1023.1 0.0
 
Date/Time
CDT
Tmp

°C
App
Tmp
°C
Dew
Point
°C
Rel
Hum
%
Delta-T

°C
Wind Press
QNH
hPa
Press
MSL
hPa
Rain
since
9 am
mm
Dir
 
Spd
km/h
Gust
km/h
Spd
kts
Gust
kts
20/11:30pm 12.6 12.2 8.4 75 2.1 CALM 0 0 0 0 1023.1 1023.1 0.0
20/11:00pm 14.0 13.9 9.3 73 2.4 CALM 0 0 0 0 1023.2 1023.2 0.0
20/10:30pm 15.6 15.0 10.3 70 2.8 WSW 4 13 2 7 1023.2 1023.2 0.0
20/10:00pm 17.0 15.5 10.4 65 3.5 WSW 9 13 5 7 1023.3 1023.3 0.0
20/09:30pm 17.5 15.7 10.8 65 3.6 SW 11 17 6 9 1023.0 1023.0 0.0
20/09:00pm 18.7 15.7 10.7 59 4.3 W 17 20 9 11 1023.0 1023.0 0.0
20/08:30pm 19.1 16.2 11.0 59 4.4 WSW 17 20 9 11 1022.7 1022.7 0.0
20/08:00pm 20.5 18.4 11.0 54 5.2 WSW 13 15 7 8 1022.5 1022.5 0.0
20/07:30pm 22.5 20.3 10.9 48 6.4 SW 13 15 7 8 1022.1 1022.1 0.0
20/07:00pm 25.3 23.0 9.1 35 8.8 S 11 17 6 9 1021.7 1021.7 0.0
20/06:30pm 28.2 23.2 3.7 21 12.3 SE 19 24 10 13 1021.4 1021.4 0.0
20/06:00pm 28.9 23.4 3.8 20 12.7 SE 22 28 12 15 1021.3 1021.3 0.0
20/05:30pm 30.0 25.1 4.3 19 13.2 SE 19 24 10 13 1021.3 1021.3 0.0
20/05:00pm 30.2 27.1 3.6 18 13.6 E 9 15 5 8 1021.3 1021.3 0.0
20/04:30pm 29.5 25.7 3.9 19 13.0 SE 13 20 7 11 1021.4 1021.4 0.0
20/04:00pm 29.9 26.2 4.4 20 13.1 E 13 20 7 11 1021.7 1021.7 0.0
20/03:30pm 29.5 26.2 4.3 20 12.9 E 11 20 6 11 1022.2 1022.2 0.0
20/03:00pm 28.9 25.0 5.4 22 12.2 E 15 22 8 12 1022.7 1022.7 0.0
20/02:30pm 27.5 22.6 5.3 24 11.4 NE 20 26 11 14 1023.2 1023.2 0.0
20/02:00pm 26.6 23.7 6.5 27 10.5 E 11 24 6 13 1023.8 1023.8 0.0
20/01:30pm 25.7 22.5 7.0 30 9.8 E 13 20 7 11 1024.3 1024.3 0.0

Latest Capital City Observations: Canberra | Sydney | Melbourne | Brisbane | Adelaide | Perth | Hobart | Darwin

Other Formats:

Comma delimited format used in spreadsheet applications
http://www.bom.gov.au/fwo/IDS60901/IDS60901.95818.axf

JavaScript Object Notation format (JSON) in row-major order
http://www.bom.gov.au/fwo/IDS60901/IDS60901.95818.json